Time;durP1;ratioP1;P1;durP2;ratioP2;P2;SDS_P1;SDS_P2;PMS_P1;PMS_P2;Temp;Humidity;BMP_temperature;BMP_pressure;BME280_temperature;BME280_humidity;BME280_pressure;Samples;Min_cycle;Max_cycle;Signal;HPM_P1;HPM_P2
2022/10/31 00:01:10;;;;;;;31.40;16.02;;;;;;;;;;5051863;28;20463;-76
2022/10/31 00:03:36;;;;;;;26.73;16.05;;;;;;;;;;5054411;28;20045;-76
2022/10/31 00:06:02;;;;;;;30.67;14.65;;;;;;;;;;5043710;28;20032;-75
2022/10/31 00:08:28;;;;;;;26.92;15.00;;;;;;;;;;5071060;28;20387;-76
2022/10/31 00:10:54;;;;;;;31.65;16.52;;;;;;;;;;5079172;28;20024;-77
2022/10/31 00:13:20;;;;;;;29.00;15.73;;;;;;;;;;5061891;28;20074;-76
2022/10/31 00:15:46;;;;;;;29.15;14.52;;;;;;;;;;5043268;28;20029;-77
2022/10/31 00:18:12;;;;;;;30.23;16.80;;;;;;;;;;5068310;28;20356;-78
2022/10/31 00:20:38;;;;;;;28.27;15.40;;;;;;;;;;5061096;28;20036;-78
2022/10/31 00:23:05;;;;;;;27.98;15.45;;;;;;;;;;5042447;28;20033;-77
2022/10/31 00:25:34;;;;;;;33.47;15.93;;;;;;;;;;5041261;28;20025;-76
2022/10/31 00:28:00;;;;;;;25.98;14.20;;;;;;;;;;5069140;28;20441;-76
2022/10/31 00:30:25;;;;;;;24.60;14.68;;;;;;;;;;5053476;28;20029;-75
2022/10/31 00:32:51;;;;;;;23.42;13.27;;;;;;;;;;5040319;28;20048;-76
2022/10/31 00:35:17;;;;;;;22.95;13.73;;;;;;;;;;5058829;28;20070;-76
2022/10/31 00:37:43;;;;;;;25.83;15.05;;;;;;;;;;5068866;28;20036;-78
2022/10/31 00:40:10;;;;;;;32.38;15.05;;;;;;;;;;5063469;28;20028;-77
2022/10/31 00:42:36;;;;;;;28.60;15.23;;;;;;;;;;5058053;28;20029;-74
2022/10/31 00:45:02;;;;;;;25.92;14.30;;;;;;;;;;5038925;28;20379;-77
2022/10/31 00:47:28;;;;;;;25.48;14.13;;;;;;;;;;5073707;28;20017;-77
2022/10/31 00:49:54;;;;;;;33.75;15.88;;;;;;;;;;5072658;28;20471;-76
2022/10/31 00:52:20;;;;;;;27.20;16.33;;;;;;;;;;5064000;28;20021;-76
2022/10/31 00:54:46;;;;;;;26.33;14.98;;;;;;;;;;5061496;28;20083;-77
2022/10/31 00:57:12;;;;;;;25.25;14.30;;;;;;;;;;5075102;28;20020;-78
2022/10/31 00:59:38;;;;;;;29.10;13.43;;;;;;;;;;5060342;28;20510;-77
2022/10/31 01:02:04;;;;;;;25.27;14.68;;;;;;;;;;5057319;28;20106;-75
2022/10/31 01:04:30;;;;;;;28.45;14.52;;;;;;;;;;5054983;28;20017;-75
2022/10/31 01:06:56;;;;;;;21.67;13.50;;;;;;;;;;5066450;28;20017;-78
2022/10/31 01:09:22;;;;;;;29.33;14.70;;;;;;;;;;5065995;28;20044;-78
2022/10/31 01:11:48;;;;;;;25.13;14.77;;;;;;;;;;5060052;28;20498;-78
2022/10/31 01:14:14;;;;;;;28.92;14.13;;;;;;;;;;5054767;28;20032;-76
2022/10/31 01:16:40;;;;;;;26.92;13.68;;;;;;;;;;5065278;28;20025;-77
2022/10/31 01:19:06;;;;;;;26.83;14.05;;;;;;;;;;5063905;28;20028;-78
2022/10/31 01:21:32;;;;;;;28.35;15.35;;;;;;;;;;5062562;28;20151;-77
2022/10/31 01:23:58;;;;;;;31.80;14.68;;;;;;;;;;5054645;28;20028;-75
2022/10/31 01:26:26;;;;;;;26.73;14.25;;;;;;;;;;5047805;28;20028;-78
2022/10/31 01:28:56;;;;;;;20.60;13.95;;;;;;;;;;5059493;28;20021;-77
2022/10/31 01:31:23;;;;;;;31.70;15.03;;;;;;;;;;5038655;28;20110;-76
2022/10/31 01:33:49;;;;;;;27.65;14.45;;;;;;;;;;5054017;28;20031;-78
2022/10/31 01:36:34;;;;;;;24.05;13.68;;;;;;;;;;5063692;28;20115;-80
2022/10/31 01:39:01;;;;;;;22.30;13.45;;;;;;;;;;5061794;28;20100;-77
2022/10/31 01:41:29;;;;;;;24.92;13.95;;;;;;;;;;5062493;28;20044;-78
2022/10/31 01:43:54;;;;;;;26.02;14.10;;;;;;;;;;5054072;28;20017;-77
2022/10/31 01:46:32;;;;;;;25.58;13.63;;;;;;;;;;5067976;28;20021;-74
2022/10/31 01:49:00;;;;;;;25.38;13.00;;;;;;;;;;5046147;28;20394;-76
2022/10/31 01:51:29;;;;;;;26.88;13.18;;;;;;;;;;5067584;28;20029;-76
2022/10/31 01:53:57;;;;;;;21.10;12.68;;;;;;;;;;5058508;28;20044;-76
2022/10/31 01:56:23;;;;;;;29.27;14.95;;;;;;;;;;5048571;28;20043;-75
2022/10/31 01:58:49;;;;;;;21.33;12.60;;;;;;;;;;5061380;28;20029;-76
2022/10/31 02:01:16;;;;;;;23.60;13.35;;;;;;;;;;5055001;28;20024;-76
2022/10/31 02:03:43;;;;;;;26.00;12.93;;;;;;;;;;5054762;28;20108;-78
2022/10/31 02:06:13;;;;;;;27.38;13.52;;;;;;;;;;5051604;28;20025;-78
2022/10/31 02:08:39;;;;;;;28.42;14.80;;;;;;;;;;5061085;28;20024;-75
2022/10/31 02:11:06;;;;;;;28.02;14.98;;;;;;;;;;5061317;28;20328;-76
2022/10/31 02:13:34;;;;;;;21.90;13.60;;;;;;;;;;5038011;28;20021;-76
2022/10/31 02:16:00;;;;;;;29.42;14.40;;;;;;;;;;5061033;28;20483;-78
2022/10/31 02:18:27;;;;;;;28.90;14.57;;;;;;;;;;5064272;28;20033;-78
2022/10/31 02:20:56;;;;;;;24.55;12.48;;;;;;;;;;5059311;28;20033;-78
2022/10/31 02:23:46;;;;;;;23.67;13.80;;;;;;;;;;5058187;28;20052;-78
2022/10/31 02:26:15;;;;;;;27.15;13.63;;;;;;;;;;5062806;28;20020;-78
2022/10/31 02:28:59;;;;;;;25.08;12.88;;;;;;;;;;5046367;28;20017;-78
2022/10/31 02:31:34;;;;;;;28.42;13.55;;;;;;;;;;5050690;28;20116;-77
2022/10/31 02:34:06;;;;;;;31.33;14.35;;;;;;;;;;5025227;28;20021;-77
2022/10/31 02:36:40;;;;;;;27.20;12.77;;;;;;;;;;5064221;28;20502;-77
2022/10/31 02:39:19;;;;;;;26.27;13.45;;;;;;;;;;5045088;28;20391;-77
2022/10/31 02:42:04;;;;;;;21.58;11.95;;;;;;;;;;5059228;28;20024;-76
2022/10/31 02:44:38;;;;;;;30.45;15.40;;;;;;;;;;5035199;28;20021;-78
2022/10/31 02:47:24;;;;;;;26.65;14.18;;;;;;;;;;5065150;28;20538;-77
2022/10/31 02:50:13;;;;;;;22.88;12.13;;;;;;;;;;5064149;28;20078;-76
2022/10/31 02:52:39;;;;;;;22.50;11.68;;;;;;;;;;5047690;28;20403;-76
2022/10/31 02:55:11;;;;;;;22.73;11.35;;;;;;;;;;5055027;28;20028;-76
2022/10/31 02:57:38;;;;;;;22.17;11.75;;;;;;;;;;5048908;28;20033;-76
2022/10/31 03:00:06;;;;;;;23.88;12.20;;;;;;;;;;5053934;28;20417;-77
2022/10/31 03:02:37;;;;;;;22.92;11.70;;;;;;;;;;5055872;28;20017;-77
2022/10/31 03:05:22;;;;;;;29.65;13.05;;;;;;;;;;5054476;28;20033;-77
2022/10/31 03:08:03;;;;;;;22.88;12.25;;;;;;;;;;5066356;28;20059;-77
2022/10/31 03:10:47;;;;;;;19.02;12.05;;;;;;;;;;5040210;28;20548;-75
2022/10/31 03:13:13;;;;;;;21.90;11.88;;;;;;;;;;5057600;28;20020;-77
2022/10/31 03:15:44;;;;;;;26.63;14.45;;;;;;;;;;5057367;28;20029;-77
2022/10/31 03:18:13;;;;;;;27.63;13.43;;;;;;;;;;5065992;28;20373;-78
2022/10/31 03:20:46;;;;;;;22.85;11.98;;;;;;;;;;5058193;28;20453;-76
2022/10/31 03:23:15;;;;;;;22.77;11.68;;;;;;;;;;5039801;28;20048;-76
2022/10/31 03:25:41;;;;;;;30.23;13.18;;;;;;;;;;5057795;28;20021;-76
2022/10/31 03:28:09;;;;;;;25.40;13.80;;;;;;;;;;5052901;28;20021;-77
2022/10/31 03:30:37;;;;;;;18.70;12.40;;;;;;;;;;5058045;28;20078;-76
2022/10/31 03:33:05;;;;;;;24.77;12.05;;;;;;;;;;5058389;28;20483;-76
2022/10/31 03:35:32;;;;;;;32.85;12.75;;;;;;;;;;5057543;28;20025;-76
2022/10/31 03:38:00;;;;;;;28.77;13.18;;;;;;;;;;5068569;28;20061;-76
2022/10/31 03:40:27;;;;;;;31.70;13.05;;;;;;;;;;5060217;28;20459;-76
2022/10/31 03:42:55;;;;;;;30.02;13.88;;;;;;;;;;5059968;28;20035;-74
2022/10/31 03:45:29;;;;;;;22.52;13.00;;;;;;;;;;5060315;28;20402;-75
2022/10/31 03:47:55;;;;;;;24.38;12.70;;;;;;;;;;5070898;28;20021;-77
2022/10/31 03:50:22;;;;;;;27.42;12.68;;;;;;;;;;5063283;28;20025;-76
2022/10/31 03:52:55;;;;;;;19.75;10.90;;;;;;;;;;5059339;28;20032;-77
2022/10/31 03:55:30;;;;;;;24.58;12.30;;;;;;;;;;5056818;28;20024;-77
2022/10/31 03:57:58;;;;;;;24.30;12.70;;;;;;;;;;5069920;28;20074;-76
2022/10/31 04:00:24;;;;;;;25.15;12.50;;;;;;;;;;5036058;28;20246;-77
2022/10/31 04:02:54;;;;;;;22.80;12.98;;;;;;;;;;5039114;28;20025;-76
2022/10/31 04:05:20;;;;;;;23.63;11.88;;;;;;;;;;5059278;28;20506;-77
2022/10/31 04:07:48;;;;;;;30.25;12.45;;;;;;;;;;5069998;28;20024;-77
2022/10/31 04:10:15;;;;;;;21.23;11.82;;;;;;;;;;5064015;28;20048;-77
2022/10/31 04:12:43;;;;;;;21.17;12.45;;;;;;;;;;5058802;28;20029;-78
2022/10/31 04:15:10;;;;;;;22.10;11.63;;;;;;;;;;5040374;28;20085;-78
2022/10/31 04:17:38;;;;;;;20.63;11.85;;;;;;;;;;5069737;28;20060;-77
2022/10/31 04:20:04;;;;;;;18.75;11.65;;;;;;;;;;5064503;28;20063;-75
2022/10/31 04:22:30;;;;;;;24.70;12.23;;;;;;;;;;5053569;28;20462;-77
2022/10/31 04:24:56;;;;;;;24.50;11.15;;;;;;;;;;5056319;28;20048;-78
2022/10/31 04:27:22;;;;;;;24.75;11.13;;;;;;;;;;5062342;28;20077;-77
2022/10/31 04:29:48;;;;;;;25.27;12.75;;;;;;;;;;5058521;28;20029;-78
2022/10/31 04:32:14;;;;;;;26.27;12.05;;;;;;;;;;5053074;28;20060;-78
2022/10/31 04:34:40;;;;;;;24.52;12.25;;;;;;;;;;5055195;28;20486;-78
2022/10/31 04:37:06;;;;;;;25.25;12.15;;;;;;;;;;5065567;28;20048;-73
2022/10/31 04:39:32;;;;;;;23.58;12.30;;;;;;;;;;5059023;28;20486;-78
2022/10/31 04:41:58;;;;;;;20.95;11.27;;;;;;;;;;5059363;28;20017;-76
2022/10/31 04:46:53;;;;;;;24.38;11.30;;;;;;;;;;5070774;28;20044;-78
2022/10/31 04:49:19;;;;;;;19.10;10.10;;;;;;;;;;5073201;28;20027;-79
2022/10/31 04:51:45;;;;;;;17.40;9.50;;;;;;;;;;5048130;28;20107;-78
2022/10/31 04:54:10;;;;;;;25.85;10.43;;;;;;;;;;5071970;28;20219;-77
2022/10/31 04:56:36;;;;;;;17.02;8.82;;;;;;;;;;5057214;28;20025;-78
2022/10/31 04:59:03;;;;;;;18.00;8.90;;;;;;;;;;5036860;28;20037;-78
2022/10/31 05:01:29;;;;;;;17.33;8.77;;;;;;;;;;5055693;28;20028;-78
2022/10/31 05:03:55;;;;;;;16.13;8.93;;;;;;;;;;5064367;28;20013;-76
2022/10/31 05:06:21;;;;;;;14.68;8.63;;;;;;;;;;5052797;28;20403;-77
2022/10/31 05:08:47;;;;;;;18.08;9.60;;;;;;;;;;5052549;28;20104;-78
2022/10/31 05:11:13;;;;;;;19.27;9.43;;;;;;;;;;5052871;28;20035;-78
2022/10/31 05:13:39;;;;;;;22.38;8.77;;;;;;;;;;5052308;28;20017;-78
2022/10/31 05:16:05;;;;;;;22.15;9.80;;;;;;;;;;5034224;28;20498;-78
2022/10/31 05:18:31;;;;;;;23.30;8.90;;;;;;;;;;5051771;28;20025;-78
2022/10/31 05:20:57;;;;;;;19.17;9.05;;;;;;;;;;5052351;28;20033;-78
2022/10/31 05:23:23;;;;;;;17.63;8.77;;;;;;;;;;5034359;28;20027;-79
2022/10/31 05:25:49;;;;;;;14.55;8.60;;;;;;;;;;5052266;28;20391;-78
2022/10/31 05:28:15;;;;;;;17.27;9.07;;;;;;;;;;5051151;28;20483;-77
2022/10/31 05:30:41;;;;;;;25.02;10.85;;;;;;;;;;5052690;28;20033;-79
2022/10/31 05:33:07;;;;;;;24.98;12.98;;;;;;;;;;5052409;28;20029;-78
2022/10/31 05:35:33;;;;;;;19.83;12.43;;;;;;;;;;5035929;28;20501;-79
2022/10/31 05:38:00;;;;;;;16.40;10.52;;;;;;;;;;5055761;28;20036;-80
2022/10/31 05:40:26;;;;;;;21.20;12.02;;;;;;;;;;5050894;28;20112;-79
2022/10/31 05:42:53;;;;;;;18.25;12.23;;;;;;;;;;5050617;28;20111;-79
2022/10/31 05:45:19;;;;;;;19.60;10.93;;;;;;;;;;5025538;28;20325;-79
2022/10/31 05:47:56;;;;;;;24.65;10.88;;;;;;;;;;5023195;28;20021;-78
2022/10/31 05:50:24;;;;;;;14.75;9.55;;;;;;;;;;5033391;28;20026;-79
2022/10/31 05:52:58;;;;;;;19.30;12.00;;;;;;;;;;5015985;28;20103;-79
2022/10/31 05:55:27;;;;;;;25.73;11.93;;;;;;;;;;5033601;28;20025;-79
2022/10/31 05:57:53;;;;;;;21.98;11.55;;;;;;;;;;5015550;28;20524;-79
2022/10/31 06:00:20;;;;;;;22.33;11.15;;;;;;;;;;5019933;28;20395;-79
2022/10/31 06:02:46;;;;;;;17.95;10.10;;;;;;;;;;5036134;28;20029;-79
2022/10/31 06:05:16;;;;;;;18.95;10.43;;;;;;;;;;5015167;28;20033;-76
2022/10/31 06:07:42;;;;;;;23.75;13.18;;;;;;;;;;5014267;28;20442;-79
2022/10/31 06:10:08;;;;;;;18.10;9.68;;;;;;;;;;5014831;28;20025;-79
2022/10/31 06:12:37;;;;;;;15.07;8.90;;;;;;;;;;5032326;28;20035;-79
2022/10/31 06:15:05;;;;;;;14.82;8.43;;;;;;;;;;5031912;28;20373;-79
2022/10/31 06:17:31;;;;;;;15.10;9.02;;;;;;;;;;5033746;28;20028;-81
2022/10/31 06:19:57;;;;;;;17.25;9.82;;;;;;;;;;5033856;28;20234;-79
2022/10/31 06:22:23;;;;;;;22.15;10.80;;;;;;;;;;5015913;28;20494;-79
2022/10/31 06:24:51;;;;;;;15.73;9.30;;;;;;;;;;5014454;28;20145;-78
2022/10/31 06:27:17;;;;;;;18.23;8.57;;;;;;;;;;5033879;28;20516;-77
2022/10/31 06:29:45;;;;;;;12.27;7.85;;;;;;;;;;5027569;28;20040;-78
2022/10/31 06:32:12;;;;;;;17.05;6.80;;;;;;;;;;5043657;28;20041;-79
2022/10/31 06:34:40;;;;;;;14.45;7.03;;;;;;;;;;5017364;28;20028;-78
2022/10/31 06:37:16;;;;;;;11.75;6.75;;;;;;;;;;5015543;28;20101;-76
2022/10/31 06:39:44;;;;;;;11.00;6.22;;;;;;;;;;5031978;28;20022;-77
2022/10/31 06:42:11;;;;;;;12.00;6.13;;;;;;;;;;5022769;28;20022;-78
2022/10/31 06:44:39;;;;;;;8.95;5.53;;;;;;;;;;5038387;28;20060;-78
2022/10/31 06:47:06;;;;;;;11.57;5.53;;;;;;;;;;5053841;28;20446;-79
2022/10/31 06:49:32;;;;;;;12.75;6.57;;;;;;;;;;5058759;28;20025;-80
2022/10/31 06:51:58;;;;;;;17.05;6.80;;;;;;;;;;5039341;28;20024;-79
2022/10/31 06:54:27;;;;;;;12.85;5.40;;;;;;;;;;5039887;28;20025;-80
2022/10/31 06:56:53;;;;;;;10.30;6.18;;;;;;;;;;5040129;28;20016;-81
2022/10/31 06:59:21;;;;;;;12.73;6.55;;;;;;;;;;5046751;28;20017;-80
2022/10/31 07:01:49;;;;;;;11.10;5.00;;;;;;;;;;5060597;28;20029;-77
2022/10/31 07:04:19;;;;;;;10.30;5.63;;;;;;;;;;5036952;28;20066;-79
2022/10/31 07:06:45;;;;;;;11.68;6.30;;;;;;;;;;5039700;28;20047;-78
2022/10/31 07:09:21;;;;;;;13.23;6.45;;;;;;;;;;5058044;28;20031;-78
2022/10/31 07:11:47;;;;;;;12.98;6.00;;;;;;;;;;5037504;28;20056;-78
2022/10/31 07:14:13;;;;;;;12.60;5.88;;;;;;;;;;5052951;28;20510;-77
2022/10/31 07:16:42;;;;;;;11.15;5.70;;;;;;;;;;5052967;28;20372;-79
2022/10/31 07:19:10;;;;;;;12.00;6.10;;;;;;;;;;5037838;28;20028;-78
2022/10/31 07:21:39;;;;;;;11.07;5.65;;;;;;;;;;5055887;28;20479;-77
2022/10/31 07:24:07;;;;;;;13.38;6.25;;;;;;;;;;5037537;28;20327;-80
2022/10/31 07:26:47;;;;;;;10.82;6.10;;;;;;;;;;5037545;28;20066;-79
2022/10/31 07:29:16;;;;;;;12.32;5.47;;;;;;;;;;5041035;28;20025;-77
2022/10/31 07:31:45;;;;;;;10.57;6.15;;;;;;;;;;5036974;28;20077;-78
2022/10/31 07:34:14;;;;;;;12.45;5.93;;;;;;;;;;5036921;28;20017;-78
2022/10/31 07:36:40;;;;;;;15.65;5.85;;;;;;;;;;5036641;28;20078;-77
2022/10/31 07:39:09;;;;;;;14.98;5.72;;;;;;;;;;5035951;28;20503;-78
2022/10/31 07:41:41;;;;;;;13.30;5.72;;;;;;;;;;5061910;28;20029;-78
2022/10/31 07:44:09;;;;;;;16.77;5.97;;;;;;;;;;5036814;28;20541;-78
2022/10/31 07:46:35;;;;;;;11.68;6.32;;;;;;;;;;5035917;28;20446;-78
2022/10/31 07:49:01;;;;;;;14.77;5.97;;;;;;;;;;5035609;28;20021;-77
2022/10/31 07:51:30;;;;;;;13.35;5.68;;;;;;;;;;5054260;28;20394;-78
2022/10/31 07:53:58;;;;;;;14.43;6.30;;;;;;;;;;5043561;28;20074;-77
2022/10/31 07:56:57;;;;;;;;;;;;;;;;;;;;;
2022/10/31 07:59:49;;;;;;;11.63;5.40;;;;;;;;;;5054014;28;20120;-82
2022/10/31 08:02:35;;;;;;;9.38;5.93;;;;;;;;;;5032481;28;20155;-81
2022/10/31 08:05:07;;;;;;;9.48;5.10;;;;;;;;;;5056961;28;20040;-80
2022/10/31 08:07:44;;;;;;;12.43;6.30;;;;;;;;;;5053566;28;20017;-80
2022/10/31 08:10:13;;;;;;;10.05;5.18;;;;;;;;;;5055890;28;20032;-80
2022/10/31 08:12:54;;;;;;;;;;;;;;;;;;;;;
2022/10/31 08:18:43;;;;;;;8.35;5.70;;;;;;;;;;5033950;28;20396;-79
2022/10/31 08:24:24;;;;;;;;;;;;;;;;;;;;;
2022/10/31 08:30:12;;;;;;;10.68;4.60;;;;;;;;;;5055913;28;20106;-81
2022/10/31 08:35:58;;;;;;;9.63;6.40;;;;;;;;;;5040441;28;20049;-79
2022/10/31 08:38:24;;;;;;;11.52;5.78;;;;;;;;;;5062946;28;20022;-79
2022/10/31 08:41:11;;;;;;;11.75;6.15;;;;;;;;;;5055722;28;20027;-79
2022/10/31 08:43:37;;;;;;;9.40;5.57;;;;;;;;;;5047336;28;20031;-80
2022/10/31 08:46:06;;;;;;;9.93;5.82;;;;;;;;;;5053525;28;20062;-79
2022/10/31 08:48:58;;;;;;;12.48;6.10;;;;;;;;;;5048057;28;20039;-81
2022/10/31 08:51:43;;;;;;;8.70;5.60;;;;;;;;;;5048944;28;20025;-80
2022/10/31 08:54:30;;;;;;;9.90;6.30;;;;;;;;;;5055478;28;20119;-80
2022/10/31 08:56:56;;;;;;;10.73;5.72;;;;;;;;;;5058901;28;20100;-80
2022/10/31 08:59:22;;;;;;;10.60;5.78;;;;;;;;;;5055819;28;20040;-80
2022/10/31 09:01:48;;;;;;;14.32;5.57;;;;;;;;;;5038564;28;20078;-80
2022/10/31 09:04:39;;;;;;;7.70;5.32;;;;;;;;;;5056844;28;20067;-81
2022/10/31 09:07:18;;;;;;;14.02;6.55;;;;;;;;;;5025978;28;20514;-80
2022/10/31 09:09:50;;;;;;;9.27;5.45;;;;;;;;;;5056951;28;20021;-80
2022/10/31 09:12:17;;;;;;;8.70;6.13;;;;;;;;;;5044806;28;20036;-80
2022/10/31 09:14:43;;;;;;;11.63;5.80;;;;;;;;;;5055915;28;20056;-79
2022/10/31 09:17:09;;;;;;;13.32;5.45;;;;;;;;;;5036976;28;20017;-80
2022/10/31 09:19:36;;;;;;;10.20;5.68;;;;;;;;;;5037839;28;20021;-80
2022/10/31 09:22:02;;;;;;;9.55;5.53;;;;;;;;;;5040756;28;20032;-81
2022/10/31 09:24:30;;;;;;;10.45;5.70;;;;;;;;;;5061597;28;20041;-81
2022/10/31 09:30:44;;;;;;;9.60;5.63;;;;;;;;;;4976339;28;20027;-80
2022/10/31 09:33:13;;;;;;;11.40;5.20;;;;;;;;;;4917067;29;20076;-81
2022/10/31 09:36:09;;;;;;;12.07;5.50;;;;;;;;;;4972828;28;20059;-81
2022/10/31 09:38:38;;;;;;;11.88;5.97;;;;;;;;;;4961802;28;20125;-83
2022/10/31 09:41:35;;;;;;;12.13;5.75;;;;;;;;;;5041620;28;20101;-83
2022/10/31 09:44:11;;;;;;;9.07;5.35;;;;;;;;;;5047098;28;20028;-82
2022/10/31 09:46:37;;;;;;;11.43;5.32;;;;;;;;;;5081030;28;20028;-81
2022/10/31 09:49:23;;;;;;;7.95;5.00;;;;;;;;;;5048527;28;20028;-80
2022/10/31 09:52:12;;;;;;;11.07;5.55;;;;;;;;;;5043856;28;20375;-82
2022/10/31 09:54:57;;;;;;;9.15;5.25;;;;;;;;;;5047665;28;20463;-80
2022/10/31 09:57:29;;;;;;;9.23;4.15;;;;;;;;;;5034836;28;20491;-81
2022/10/31 09:59:55;;;;;;;8.93;4.75;;;;;;;;;;5053189;28;20503;-81
2022/10/31 10:02:27;;;;;;;9.93;5.38;;;;;;;;;;5043897;28;20021;-81
2022/10/31 10:05:07;;;;;;;16.30;5.72;;;;;;;;;;5061892;28;20029;-82
2022/10/31 10:07:40;;;;;;;8.90;4.40;;;;;;;;;;5039795;28;20025;-82
2022/10/31 10:10:38;;;;;;;7.72;5.45;;;;;;;;;;5041372;28;20096;-81
2022/10/31 10:13:19;;;;;;;9.23;4.95;;;;;;;;;;5028097;28;20491;-80
2022/10/31 10:15:49;;;;;;;13.35;5.20;;;;;;;;;;5026059;28;20072;-82
2022/10/31 10:18:15;;;;;;;8.15;5.22;;;;;;;;;;5055575;28;20047;-82
2022/10/31 10:21:10;;;;;;;8.55;5.15;;;;;;;;;;5038937;28;20096;-82
2022/10/31 10:23:45;;;;;;;12.70;5.78;;;;;;;;;;5037994;28;20071;-82
2022/10/31 10:26:50;;;;;;;13.13;5.32;;;;;;;;;;5049174;28;20435;-83
2022/10/31 10:29:29;;;;;;;12.27;6.03;;;;;;;;;;5044338;28;20043;-82
2022/10/31 10:31:55;;;;;;;10.40;5.75;;;;;;;;;;5059573;28;20044;-82
2022/10/31 10:34:25;;;;;;;12.07;5.68;;;;;;;;;;5065177;28;20562;-82
2022/10/31 10:36:58;;;;;;;13.43;5.40;;;;;;;;;;5050927;28;20434;-82
2022/10/31 10:39:43;;;;;;;10.13;6.05;;;;;;;;;;5038735;28;20056;-83
2022/10/31 10:47:43;;;;;;;11.18;6.00;;;;;;;;;;5001755;28;20040;-77
2022/10/31 10:50:09;;;;;;;12.55;5.88;;;;;;;;;;5009655;28;20022;-77
2022/10/31 10:52:48;;;;;;;12.88;5.85;;;;;;;;;;5005287;28;20430;-77
2022/10/31 10:55:30;;;;;;;12.77;5.50;;;;;;;;;;5009638;28;20093;-77
2022/10/31 10:58:01;;;;;;;12.98;6.28;;;;;;;;;;5011934;28;20030;-76
2022/10/31 11:00:27;;;;;;;;;;;;;;;;;;4994565;28;20030;-76
2022/10/31 11:02:54;;;;;;;13.82;6.60;;;;;;;;;;5005273;28;19910;-76
2022/10/31 11:05:38;;;;;;;12.07;6.13;;;;;;;;;;5011527;28;20061;-77
2022/10/31 11:08:05;;;;;;;14.25;5.72;;;;;;;;;;5001958;28;20396;-77
2022/10/31 11:10:33;;;;;;;15.02;6.32;;;;;;;;;;5011590;28;20112;-77
2022/10/31 11:13:05;;;;;;;12.73;5.90;;;;;;;;;;4994179;28;20022;-76
2022/10/31 11:15:37;;;;;;;12.90;6.10;;;;;;;;;;5011414;28;20049;-75
2022/10/31 11:18:03;;;;;;;14.60;6.90;;;;;;;;;;5011297;28;20440;-76
2022/10/31 11:20:31;;;;;;;15.07;7.07;;;;;;;;;;5011663;28;20049;-76
2022/10/31 11:23:02;;;;;;;11.73;6.43;;;;;;;;;;4993986;28;20014;-76
2022/10/31 11:25:28;;;;;;;15.55;6.93;;;;;;;;;;5011760;28;20025;-76
2022/10/31 11:28:04;;;;;;;18.88;7.55;;;;;;;;;;5011365;28;20026;-78
2022/10/31 11:30:31;;;;;;;17.20;8.45;;;;;;;;;;5006622;28;20043;-78
2022/10/31 11:32:57;;;;;;;14.95;8.15;;;;;;;;;;5005156;28;20485;-78
2022/10/31 11:35:24;;;;;;;15.75;7.90;;;;;;;;;;5010125;28;20030;-77
2022/10/31 11:37:53;;;;;;;18.77;8.48;;;;;;;;;;4993332;28;20058;-77
2022/10/31 11:40:23;;;;;;;14.85;8.48;;;;;;;;;;5011339;28;20072;-77
2022/10/31 11:42:50;;;;;;;15.90;7.72;;;;;;;;;;5011587;28;20022;-77
2022/10/31 11:45:19;;;;;;;18.83;8.90;;;;;;;;;;4993555;28;20030;-77
2022/10/31 11:47:54;;;;;;;18.05;9.35;;;;;;;;;;4977705;28;20081;-78
2022/10/31 11:50:41;;;;;;;20.08;8.52;;;;;;;;;;5011917;28;20049;-77
2022/10/31 11:53:19;;;;;;;16.20;7.88;;;;;;;;;;5012694;28;20052;-77
2022/10/31 11:55:46;;;;;;;21.13;7.63;;;;;;;;;;5012353;28;20033;-77
2022/10/31 11:58:28;;;;;;;20.88;8.68;;;;;;;;;;4994689;28;20143;-78
2022/10/31 12:01:11;;;;;;;18.73;9.10;;;;;;;;;;4994864;28;20025;-77
2022/10/31 12:04:10;;;;;;;17.80;7.70;;;;;;;;;;5014999;28;20034;-79
2022/10/31 12:06:41;;;;;;;14.55;7.57;;;;;;;;;;4965725;28;20058;-78
2022/10/31 12:09:33;;;;;;;14.63;7.63;;;;;;;;;;4997030;28;20018;-79
2022/10/31 12:12:18;;;;;;;16.63;7.78;;;;;;;;;;4989245;28;20064;-77
2022/10/31 12:14:44;;;;;;;16.42;7.32;;;;;;;;;;4997540;28;20034;-78
2022/10/31 12:17:10;;;;;;;16.55;7.53;;;;;;;;;;4996496;28;20022;-77
2022/10/31 12:19:54;;;;;;;11.60;6.63;;;;;;;;;;4997112;28;20026;-78
2022/10/31 12:22:38;;;;;;;13.40;5.88;;;;;;;;;;5014641;28;20018;-76
2022/10/31 12:25:21;;;;;;;15.07;6.93;;;;;;;;;;5014157;28;20030;-76
2022/10/31 12:27:47;;;;;;;19.35;7.50;;;;;;;;;;5012640;28;20058;-77
2022/10/31 12:30:19;;;;;;;19.10;6.43;;;;;;;;;;5014380;28;20054;-78
2022/10/31 12:33:04;;;;;;;17.65;6.95;;;;;;;;;;5014770;28;20065;-77
2022/10/31 12:35:32;;;;;;;13.82;6.47;;;;;;;;;;5013961;28;20053;-77
2022/10/31 12:38:20;;;;;;;14.15;7.45;;;;;;;;;;5013845;28;20021;-76
2022/10/31 12:41:07;;;;;;;19.30;7.05;;;;;;;;;;5001401;28;20109;-77
2022/10/31 12:43:33;;;;;;;15.35;7.15;;;;;;;;;;4983868;28;20076;-76
2022/10/31 12:46:01;;;;;;;18.13;6.10;;;;;;;;;;5013812;28;20030;-76
2022/10/31 12:48:39;;;;;;;14.27;6.40;;;;;;;;;;5013210;28;20499;-76
2022/10/31 12:51:05;;;;;;;13.50;6.70;;;;;;;;;;5014199;28;20543;-77
2022/10/31 12:53:49;;;;;;;11.07;5.97;;;;;;;;;;5013584;28;20038;-74
2022/10/31 12:56:15;;;;;;;16.02;6.57;;;;;;;;;;5013885;28;20075;-76
2022/10/31 12:58:47;;;;;;;19.63;5.68;;;;;;;;;;5009431;28;20022;-76
2022/10/31 13:01:17;;;;;;;18.25;6.82;;;;;;;;;;5005725;28;20033;-77
2022/10/31 13:03:46;;;;;;;16.40;6.80;;;;;;;;;;5013543;28;20144;-76
2022/10/31 13:06:18;;;;;;;13.43;6.50;;;;;;;;;;5013807;28;20050;-76
2022/10/31 13:08:48;;;;;;;14.02;6.32;;;;;;;;;;5012936;28;20029;-77
2022/10/31 13:11:14;;;;;;;22.65;7.07;;;;;;;;;;5014038;28;20083;-78
2022/10/31 13:13:46;;;;;;;15.90;6.72;;;;;;;;;;4995462;28;20520;-76
2022/10/31 13:16:15;;;;;;;13.50;7.45;;;;;;;;;;5013514;28;20030;-77
2022/10/31 13:19:01;;;;;;;12.63;6.47;;;;;;;;;;4995861;28;20606;-76
2022/10/31 13:21:47;;;;;;;12.93;6.45;;;;;;;;;;5012527;28;20392;-77
2022/10/31 13:24:16;;;;;;;20.30;6.18;;;;;;;;;;5012823;28;20030;-76
2022/10/31 13:26:45;;;;;;;11.55;6.45;;;;;;;;;;5012170;28;20181;-77
2022/10/31 13:29:13;;;;;;;13.70;5.93;;;;;;;;;;5012570;28;20506;-76
2022/10/31 13:31:43;;;;;;;12.70;5.95;;;;;;;;;;5012855;28;20105;-77
2022/10/31 13:34:21;;;;;;;13.18;6.00;;;;;;;;;;5013441;28;20429;-76
2022/10/31 13:37:06;;;;;;;15.20;6.20;;;;;;;;;;5012934;28;20034;-77
2022/10/31 13:39:35;;;;;;;15.73;6.38;;;;;;;;;;5013829;28;20040;-76
2022/10/31 13:42:05;;;;;;;15.38;6.07;;;;;;;;;;5013779;28;20181;-77
2022/10/31 13:44:37;;;;;;;16.30;6.63;;;;;;;;;;5009837;28;20061;-76
2022/10/31 13:47:03;;;;;;;12.43;6.30;;;;;;;;;;5011401;28;20030;-73
2022/10/31 13:49:32;;;;;;;14.15;6.22;;;;;;;;;;5010863;28;20048;-78
2022/10/31 13:52:10;;;;;;;14.20;6.00;;;;;;;;;;5010882;28;20434;-78
2022/10/31 13:54:37;;;;;;;13.48;6.00;;;;;;;;;;5001922;28;20382;-77
2022/10/31 13:57:07;;;;;;;13.00;7.03;;;;;;;;;;5010765;28;20056;-74
2022/10/31 13:59:36;;;;;;;66.55;37.50;;;;;;;;;;5010915;28;20105;-77
2022/10/31 14:02:11;;;;;;;38.78;21.58;;;;;;;;;;5008034;28;20495;-76
2022/10/31 14:04:48;;;;;;;40.60;20.88;;;;;;;;;;5002150;28;20026;-76
2022/10/31 14:07:15;;;;;;;24.73;12.77;;;;;;;;;;5011059;28;20412;-76
2022/10/31 14:09:54;;;;;;;39.75;19.38;;;;;;;;;;5013446;28;20026;-76
2022/10/31 14:12:25;;;;;;;25.90;16.08;;;;;;;;;;5002249;28;20022;-76
2022/10/31 14:14:53;;;;;;;22.15;11.30;;;;;;;;;;5001450;28;20098;-77
2022/10/31 14:17:27;;;;;;;33.65;19.58;;;;;;;;;;5012628;28;20075;-78
2022/10/31 14:19:57;;;;;;;12.15;6.13;;;;;;;;;;5004588;28;20049;-78
2022/10/31 14:22:23;;;;;;;18.83;8.55;;;;;;;;;;5010733;28;20496;-75
2022/10/31 14:24:49;;;;;;;29.50;17.83;;;;;;;;;;4999960;28;20026;-77
2022/10/31 14:27:25;;;;;;;27.45;13.25;;;;;;;;;;5011676;28;20371;-78
2022/10/31 14:29:51;;;;;;;25.45;12.35;;;;;;;;;;5004289;28;20394;-77
2022/10/31 14:32:24;;;;;;;16.50;9.45;;;;;;;;;;5009280;28;20153;-73
2022/10/31 14:34:50;;;;;;;14.00;7.53;;;;;;;;;;5011500;28;20026;-73
2022/10/31 14:37:35;;;;;;;17.33;9.07;;;;;;;;;;4999374;28;20499;-74
2022/10/31 14:40:08;;;;;;;14.13;7.00;;;;;;;;;;5000328;28;20126;-74
2022/10/31 14:42:52;;;;;;;17.48;8.13;;;;;;;;;;5008143;28;20088;-76
2022/10/31 14:45:24;;;;;;;14.00;7.53;;;;;;;;;;4989880;28;20472;-74
2022/10/31 14:48:09;;;;;;;13.73;7.40;;;;;;;;;;5001521;28;20030;-75
2022/10/31 14:50:35;;;;;;;12.35;6.63;;;;;;;;;;5000817;28;20523;-75
2022/10/31 14:53:03;;;;;;;17.27;7.20;;;;;;;;;;5006464;28;20065;-76
2022/10/31 14:55:30;;;;;;;16.88;7.55;;;;;;;;;;5012453;28;20049;-75
2022/10/31 14:57:55;;;;;;;20.40;8.25;;;;;;;;;;4999314;28;20519;-76
2022/10/31 15:00:24;;;;;;;15.75;6.68;;;;;;;;;;5015794;28;20029;-77
2022/10/31 15:02:58;;;;;;;14.60;7.63;;;;;;;;;;5026137;28;20022;-77
2022/10/31 15:05:27;;;;;;;16.10;7.22;;;;;;;;;;5021812;28;20025;-80
2022/10/31 15:07:53;;;;;;;18.77;8.13;;;;;;;;;;5022315;28;20157;-79
2022/10/31 15:10:31;;;;;;;20.25;8.07;;;;;;;;;;5010384;28;20464;-78
2022/10/31 15:13:09;;;;;;;16.17;8.23;;;;;;;;;;5018435;28;20049;-76
2022/10/31 15:15:35;;;;;;;19.98;8.13;;;;;;;;;;5001877;28;20032;-75